Time;durP1;ratioP1;P1;durP2;ratioP2;P2;SDS_P1;SDS_P2;PMS_P1;PMS_P2;Temp;Humidity;BMP_temperature;BMP_pressure;BME280_temperature;BME280_humidity;BME280_pressure;Samples;Min_cycle;Max_cycle;Signal;HPM_P1;HPM_P2
2022/07/09 00:03:08;;;;;;;3.00;2.30;;;;;;;15.24;69.00;100465.03;213395;1278;142796;-63
2022/07/09 00:08:12;;;;;;;3.20;2.30;;;;;;;15.17;69.08;100456.08;213655;1276;140802;-64
2022/07/09 00:13:17;;;;;;;5.70;3.10;;;;;;;15.06;69.25;100451.71;216100;1276;140757;-64
2022/07/09 00:18:21;;;;;;;4.10;2.40;;;;;;;14.99;69.43;100455.33;216056;1276;142680;-64
2022/07/09 00:23:26;;;;;;;2.10;1.70;;;;;;;14.95;69.51;100455.65;216106;1276;140742;-64
2022/07/09 00:28:30;;;;;;;5.00;2.70;;;;;;;14.96;69.51;100456.20;215177;1276;140058;-64
2022/07/09 00:33:35;;;;;;;2.80;2.30;;;;;;;14.94;69.72;100460.89;215884;1274;140534;-65
2022/07/09 00:38:39;;;;;;;2.50;2.30;;;;;;;14.90;69.60;100458.04;215910;1275;140574;-65
2022/07/09 00:43:48;;;;;;;1.70;1.60;;;;;;;14.87;69.70;100461.15;214472;1276;141589;-64
2022/07/09 00:48:53;;;;;;;4.10;2.30;;;;;;;14.80;69.45;100471.19;213470;1276;140772;-64
2022/07/09 00:53:59;;;;;;;2.00;1.80;;;;;;;14.71;69.78;100470.03;213441;1276;141427;-64
2022/07/09 00:59:09;;;;;;;3.80;3.10;;;;;;;14.61;69.97;100472.00;213536;1276;140108;-64
2022/07/09 01:04:14;;;;;;;2.80;2.20;;;;;;;14.49;70.13;100466.16;213377;1276;140737;-64
2022/07/09 01:09:18;;;;;;;3.30;1.90;;;;;;;14.27;70.36;100457.35;213444;1276;140497;-63
2022/07/09 01:14:22;;;;;;;4.00;2.50;;;;;;;14.26;70.96;100459.69;213216;1276;140802;-63
2022/07/09 01:19:28;;;;;;;1.90;1.80;;;;;;;14.32;71.27;100464.25;213385;1276;140343;-64
2022/07/09 01:24:33;;;;;;;4.20;2.70;;;;;;;14.33;71.39;100461.59;213343;1276;139533;-62
2022/07/09 01:29:39;;;;;;;3.20;2.50;;;;;;;14.30;71.73;100456.76;213216;1276;140607;-64
2022/07/09 01:34:43;;;;;;;4.20;2.80;;;;;;;14.20;71.79;100456.41;213377;1276;141116;-63
2022/07/09 01:39:51;;;;;;;4.00;2.20;;;;;;;14.21;72.14;100448.42;213322;1276;139876;-63
2022/07/09 01:44:55;;;;;;;3.20;1.90;;;;;;;14.23;72.36;100446.17;213332;1276;139664;-63
2022/07/09 01:50:00;;;;;;;2.80;2.20;;;;;;;14.17;72.80;100442.68;213450;1276;140493;-63
2022/07/09 01:55:04;;;;;;;7.00;2.60;;;;;;;14.13;72.95;100437.78;213471;1276;139586;-65
2022/07/09 02:00:09;;;;;;;4.60;2.40;;;;;;;14.21;73.19;100434.88;213728;1276;140751;-63
2022/07/09 02:05:13;;;;;;;2.60;2.30;;;;;;;14.30;73.42;100433.48;214772;1276;141119;-64
2022/07/09 02:10:17;;;;;;;2.40;2.10;;;;;;;14.40;73.49;100432.95;213489;1276;140007;-64
2022/07/09 02:15:21;;;;;;;1.60;1.50;;;;;;;14.47;73.39;100429.88;213570;1276;141122;-64
2022/07/09 02:20:25;;;;;;;4.50;2.10;;;;;;;14.47;73.62;100424.72;213857;1276;139493;-63
2022/07/09 02:25:30;;;;;;;1.80;1.70;;;;;;;14.53;73.69;100425.95;215886;1276;140060;-64
2022/07/09 02:30:36;;;;;;;2.10;2.00;;;;;;;14.60;73.61;100422.73;216085;1274;140255;-64
2022/07/09 02:35:42;;;;;;;1.70;1.60;;;;;;;14.67;73.57;100416.71;215402;1276;139651;-64
2022/07/09 02:40:48;;;;;;;2.60;2.40;;;;;;;14.62;73.45;100413.92;213860;1276;140595;-63
2022/07/09 02:45:55;;;;;;;3.10;1.90;;;;;;;14.63;73.68;100410.77;213622;1276;139472;-63
2022/07/09 02:51:00;;;;;;;2.20;2.00;;;;;;;14.57;73.61;100404.44;213904;1276;140448;-64
2022/07/09 02:56:04;;;;;;;3.50;2.00;;;;;;;14.52;73.54;100407.04;213580;1276;140109;-64
2022/07/09 03:01:10;;;;;;;4.80;2.80;;;;;;;14.48;73.73;100403.23;213431;1276;139727;-65
2022/07/09 03:06:15;;;;;;;2.90;2.30;;;;;;;14.53;74.02;100393.10;213338;1276;140362;-63
2022/07/09 03:11:18;;;;;;;4.80;2.30;;;;;;;14.52;73.94;100392.98;213377;1276;151694;-64
2022/07/09 03:16:24;;;;;;;3.70;2.30;;;;;;;14.60;74.12;100394.08;213425;1276;140329;-63
2022/07/09 03:21:28;;;;;;;3.10;2.60;;;;;;;14.66;73.93;100397.89;213255;1276;139789;-64
2022/07/09 03:26:39;;;;;;;2.70;2.20;;;;;;;14.71;73.91;100398.85;213353;1276;140180;-64
2022/07/09 03:31:43;;;;;;;4.90;2.40;;;;;;;14.70;73.98;100390.61;213413;1276;140463;-63
2022/07/09 03:36:47;;;;;;;3.70;3.00;;;;;;;14.74;73.91;100383.43;213578;1276;140828;-63
2022/07/09 03:41:50;;;;;;;5.30;2.60;;;;;;;14.69;73.74;100382.77;213406;1276;140990;-61
2022/07/09 03:46:55;;;;;;;5.00;2.70;;;;;;;14.81;73.88;100380.77;213261;1276;139865;-64
2022/07/09 03:52:00;;;;;;;2.50;2.20;;;;;;;15.07;73.05;100372.46;213544;1276;139464;-64
2022/07/09 03:57:17;;;;;;;7.60;3.40;;;;;;;15.07;72.98;100366.34;213493;1276;139768;-62
2022/07/09 04:02:22;;;;;;;9.40;3.10;;;;;;;15.20;73.29;100364.84;213415;1277;139896;-64
2022/07/09 04:07:26;;;;;;;4.80;2.90;;;;;;;15.42;73.05;100361.08;215797;1275;141330;-65
2022/07/09 04:12:31;;;;;;;4.70;2.80;;;;;;;15.80;72.91;100352.93;215939;1276;140761;-65
2022/07/09 04:17:34;;;;;;;3.20;2.90;;;;;;;15.91;72.45;100348.84;215919;1276;140709;-63
2022/07/09 04:22:38;;;;;;;4.90;2.60;;;;;;;16.00;72.07;100348.36;215765;1276;139483;-64
2022/07/09 04:27:43;;;;;;;3.10;2.70;;;;;;;16.78;71.26;100340.30;215948;1276;140032;-64
2022/07/09 04:32:47;;;;;;;4.30;2.00;;;;;;;19.15;68.65;100335.33;213341;1277;141444;-64
2022/07/09 04:37:50;;;;;;;7.00;2.60;;;;;;;19.98;67.76;100335.47;213282;1276;143810;-63
2022/07/09 04:42:53;;;;;;;5.70;2.60;;;;;;;20.12;66.11;100336.56;213567;1276;140302;-64
2022/07/09 04:47:58;;;;;;;5.30;1.90;;;;;;;21.93;63.72;100336.15;213423;1276;141626;-63
2022/07/09 04:53:02;;;;;;;4.20;1.90;;;;;;;22.89;61.80;100336.67;213434;1276;140244;-63
2022/07/09 04:58:06;;;;;;;2.90;2.10;;;;;;;23.13;60.00;100338.24;213386;1276;140707;-63
2022/07/09 05:03:10;;;;;;;2.50;2.30;;;;;;;22.63;59.40;100334.81;213335;1276;142032;-61
2022/07/09 05:08:13;;;;;;;2.90;1.90;;;;;;;21.90;59.48;100341.39;213424;1276;141105;-64
2022/07/09 05:13:17;;;;;;;1.90;1.50;;;;;;;23.05;58.37;100336.14;213495;1276;140989;-63
2022/07/09 05:18:26;;;;;;;3.70;1.80;;;;;;;24.60;56.53;100336.03;213401;1276;139864;-63
2022/07/09 05:23:33;;;;;;;1.90;1.60;;;;;;;23.79;57.08;100336.34;213274;1276;139556;-63
2022/07/09 05:28:39;;;;;;;2.70;1.70;;;;;;;23.80;56.20;100333.98;213238;1277;140498;-63
2022/07/09 05:33:47;;;;;;;1.80;1.70;;;;;;;25.08;54.95;100334.73;213424;1277;140453;-62
2022/07/09 05:38:53;;;;;;;5.90;1.70;;;;;;;25.98;53.54;100335.98;213436;1276;139396;-63
2022/07/09 05:43:59;;;;;;;5.80;1.60;;;;;;;25.56;52.98;100334.45;213296;1276;139344;-63
2022/07/09 05:49:04;;;;;;;3.40;1.80;;;;;;;25.97;51.12;100333.71;213407;1277;139932;-63
2022/07/09 05:54:10;;;;;;;4.20;1.60;;;;;;;27.50;49.73;100329.32;214896;1277;141614;-62
2022/07/09 05:59:16;;;;;;;2.40;1.20;;;;;;;27.30;48.96;100328.37;213439;1277;139622;-62
2022/07/09 06:04:23;;;;;;;2.00;1.80;;;;;;;26.69;48.07;100330.31;215982;1276;139518;-63
2022/07/09 06:09:30;;;;;;;2.10;1.90;;;;;;;25.23;48.72;100322.55;215981;1277;139738;-63
2022/07/09 06:14:34;;;;;;;2.00;1.90;;;;;;;24.82;49.88;100323.55;215947;1277;140042;-62
2022/07/09 06:19:39;;;;;;;2.90;2.20;;;;;;;25.21;49.83;100308.55;215894;1277;140701;-63
2022/07/09 06:24:46;;;;;;;2.10;1.90;;;;;;;25.66;49.71;100303.73;214942;1276;139912;-61
2022/07/09 06:29:51;;;;;;;3.80;1.90;;;;;;;25.80;49.12;100294.38;213280;1277;142743;-62
2022/07/09 06:34:56;;;;;;;2.20;1.80;;;;;;;25.43;49.30;100293.97;213229;1277;141276;-62
2022/07/09 06:40:04;;;;;;;2.40;2.20;;;;;;;25.39;48.97;100296.92;213404;1277;140472;-61
2022/07/09 06:45:10;;;;;;;4.70;2.30;;;;;;;25.59;48.91;100288.86;213323;1277;139998;-63
2022/07/09 06:50:17;;;;;;;4.70;2.40;;;;;;;26.26;48.30;100288.27;213220;1277;139944;-63
2022/07/09 06:55:23;;;;;;;2.10;2.00;;;;;;;25.85;48.23;100290.12;213590;1277;139883;-63
2022/07/09 07:00:30;;;;;;;4.70;2.60;;;;;;;24.88;48.55;100291.15;213012;1277;139780;-63
2022/07/09 07:05:34;;;;;;;4.70;2.30;;;;;;;24.33;49.36;100282.45;213333;1277;140247;-62
2022/07/09 07:10:38;;;;;;;3.80;2.30;;;;;;;24.15;49.92;100276.83;212982;1277;139736;-63
2022/07/09 07:15:49;;;;;;;7.70;2.30;;;;;;;24.33;50.26;100271.23;213306;1277;141192;-63
2022/07/09 07:20:53;;;;;;;5.30;1.70;;;;;;;24.83;50.09;100269.86;213793;1277;139393;-61
2022/07/09 07:25:59;;;;;;;2.30;1.60;;;;;;;24.81;49.22;100265.04;214448;1276;140599;-62
2022/07/09 07:31:04;;;;;;;3.70;1.70;;;;;;;24.37;49.08;100266.83;213672;1277;140310;-61
2022/07/09 07:36:11;;;;;;;2.60;2.10;;;;;;;23.92;49.60;100264.63;213275;1277;140009;-63
2022/07/09 07:41:19;;;;;;;3.00;1.80;;;;;;;23.56;49.84;100266.47;213287;1277;140007;-61
2022/07/09 07:46:22;;;;;;;5.20;1.60;;;;;;;23.61;50.41;100259.25;213471;1277;139991;-62
2022/07/09 07:51:26;;;;;;;8.20;2.10;;;;;;;23.38;49.87;100263.89;213511;1277;139932;-61
2022/07/09 07:56:36;;;;;;;2.40;1.70;;;;;;;22.82;50.53;100258.61;215879;1276;139496;-61
2022/07/09 08:01:42;;;;;;;3.90;2.00;;;;;;;22.29;51.01;100266.41;215877;1277;140144;-62
2022/07/09 08:06:47;;;;;;;;;;;;;;;21.95;51.65;100269.09;215970;1276;140827;-62
2022/07/09 08:11:51;;;;;;;2.30;1.80;;;;;;;22.19;52.65;100264.38;216625;1276;125811;-61
2022/07/09 08:16:55;;;;;;;3.10;2.00;;;;;;;22.34;52.21;100266.06;215882;1276;141210;-62
2022/07/09 08:22:04;;;;;;;4.60;1.80;;;;;;;21.97;52.19;100265.24;215804;1276;139835;-61
2022/07/09 08:27:08;;;;;;;5.40;2.20;;;;;;;21.77;52.84;100260.88;214530;1277;140255;-61
2022/07/09 08:32:14;;;;;;;4.60;2.10;;;;;;;21.87;53.33;100259.95;213902;1277;141111;-62
2022/07/09 08:37:19;;;;;;;3.80;2.00;;;;;;;22.21;53.38;100252.66;213458;1277;141298;-62
2022/07/09 08:42:27;;;;;;;5.00;2.10;;;;;;;22.93;53.77;100247.67;213248;1276;139325;-64
2022/07/09 08:47:32;;;;;;;9.30;1.40;;;;;;;23.48;52.39;100248.15;213425;1276;139192;-62
2022/07/09 08:52:40;;;;;;;2.30;1.80;;;;;;;23.59;51.89;100244.81;213360;1276;139805;-63
2022/07/09 08:57:46;;;;;;;4.40;1.70;;;;;;;24.62;52.00;100233.92;213188;1277;143467;-62
2022/07/09 09:02:57;;;;;;;3.70;2.10;;;;;;;25.19;50.62;100229.97;213518;1277;161119;-63
2022/07/09 09:08:22;;;;;;;2.00;1.60;;;;;;;24.88;49.27;100227.58;213324;1277;140314;-63
2022/07/09 09:13:37;;;;;;;2.70;1.50;;;;;;;24.13;48.29;100226.31;213188;1276;140199;-62
2022/07/09 09:18:52;;;;;;;1.80;1.60;;;;;;;23.77;49.39;100219.61;213554;1277;140377;-62
2022/07/09 09:23:59;;;;;;;4.80;1.50;;;;;;;24.12;49.90;100224.86;213586;1276;139933;-62
2022/07/09 09:29:07;;;;;;;3.60;1.70;;;;;;;24.02;48.92;100226.05;213365;1276;141741;-62
2022/07/09 09:34:24;;;;;;;4.00;1.70;;;;;;;23.38;48.97;100227.70;213415;1277;140727;-62
2022/07/09 09:39:37;;;;;;;6.10;2.50;;;;;;;23.41;49.62;100219.09;213454;1276;220734;-62
2022/07/09 09:44:44;;;;;;;2.20;1.50;;;;;;;23.89;49.87;100212.65;213179;1276;140912;-64
2022/07/09 09:49:49;;;;;;;2.20;1.70;;;;;;;24.00;49.28;100211.41;213400;1276;140360;-61
2022/07/09 09:54:54;;;;;;;;;;;;;;;23.82;48.83;100210.83;213474;1276;140534;-64
2022/07/09 10:00:00;;;;;;;3.90;1.90;;;;;;;23.62;48.12;100204.95;216049;1276;125848;-64
2022/07/09 10:05:13;;;;;;;3.80;2.10;;;;;;;23.91;48.47;100202.41;215834;1276;139501;-64
2022/07/09 10:10:20;;;;;;;;;;;;;;;24.45;48.26;100194.38;215893;1276;139738;-64
2022/07/09 10:15:26;;;;;;;1.90;1.60;;;;;;;24.60;47.35;100192.34;214027;1277;126505;-62
2022/07/09 10:20:36;;;;;;;3.10;1.80;;;;;;;24.22;46.45;100187.90;213249;1276;141234;-62
2022/07/09 10:25:50;;;;;;;3.60;2.10;;;;;;;24.07;47.15;100187.36;213587;1276;140213;-62
2022/07/09 10:31:07;;;;;;;1.40;1.30;;;;;;;23.89;46.29;100188.92;213613;1276;139605;-62
2022/07/09 10:36:15;;;;;;;2.50;1.50;;;;;;;24.19;46.13;100185.45;213304;1276;139770;-62
2022/07/09 10:41:23;;;;;;;5.30;1.90;;;;;;;24.42;45.53;100194.00;213164;1276;139529;-62
2022/07/09 10:46:31;;;;;;;5.30;1.60;;;;;;;24.40;44.99;100186.14;213124;1276;140129;-63
2022/07/09 10:51:41;;;;;;;1.80;1.70;;;;;;;24.33;44.48;100188.32;213274;1276;140636;-62
2022/07/09 10:56:47;;;;;;;3.30;1.50;;;;;;;24.44;44.30;100185.92;213108;1276;140851;-62
2022/07/09 11:01:55;;;;;;;2.00;1.50;;;;;;;24.49;44.22;100190.27;213242;1276;139684;-62
2022/07/09 11:07:02;;;;;;;1.50;1.20;;;;;;;24.47;43.57;100188.10;212821;1276;632368;-63
2022/07/09 11:12:07;;;;;;;3.90;1.40;;;;;;;24.41;42.96;100181.96;213346;1276;139163;-61
2022/07/09 11:17:19;;;;;;;1.70;1.40;;;;;;;24.59;43.44;100183.73;213162;1276;139324;-62
2022/07/09 11:22:23;;;;;;;4.10;1.30;;;;;;;24.81;43.11;100187.95;213168;1277;139417;-61
2022/07/09 11:27:27;;;;;;;3.90;1.70;;;;;;;24.81;42.81;100185.08;213714;1276;139408;-62
2022/07/09 11:32:33;;;;;;;3.50;1.70;;;;;;;24.60;42.70;100175.77;213426;1276;140069;-61
2022/07/09 11:37:48;;;;;;;4.50;2.30;;;;;;;24.34;42.98;100168.99;213918;1276;139640;-62
2022/07/09 11:42:52;;;;;;;1.60;1.50;;;;;;;24.37;43.63;100165.26;213833;1276;139941;-62
2022/07/09 11:48:07;;;;;;;1.30;1.20;;;;;;;24.37;43.68;100166.73;214380;1276;139658;-62
2022/07/09 11:53:25;;;;;;;4.30;1.60;;;;;;;24.37;42.86;100162.81;215930;1276;150229;-61
2022/07/09 11:58:31;;;;;;;3.30;1.60;;;;;;;24.01;42.62;100161.20;215826;1276;162292;-63
2022/07/09 12:03:35;;;;;;;1.60;1.20;;;;;;;23.89;42.91;100159.23;215792;1276;141290;-64
2022/07/09 12:08:45;;;;;;;2.10;1.60;;;;;;;24.13;43.12;100155.60;215963;1276;140504;-64
2022/07/09 12:13:49;;;;;;;3.00;2.00;;;;;;;24.12;42.56;100155.20;215347;1276;140831;-64
2022/07/09 12:18:54;;;;;;;1.70;1.60;;;;;;;23.94;42.30;100158.55;214679;1275;141395;-63
2022/07/09 12:23:58;;;;;;;5.00;1.40;;;;;;;23.54;42.14;100156.81;214407;1276;141974;-64
2022/07/09 12:29:02;;;;;;;2.40;2.10;;;;;;;23.25;42.66;100155.02;213417;1276;140856;-64
2022/07/09 12:34:05;;;;;;;6.60;2.90;;;;;;;23.34;43.47;100147.28;212940;1276;141178;-64
2022/07/09 12:39:14;;;;;;;9.20;4.90;;;;;;;23.70;43.69;100139.20;213958;1275;140920;-63
2022/07/09 12:44:26;;;;;;;11.10;5.50;;;;;;;23.76;43.39;100141.95;213707;1276;141213;-63
2022/07/09 12:49:30;;;;;;;5.50;3.00;;;;;;;23.75;43.40;100137.73;214585;1276;139601;-64
2022/07/09 12:54:35;;;;;;;9.50;5.00;;;;;;;23.93;43.30;100132.23;214523;1276;139313;-62
2022/07/09 12:59:43;;;;;;;4.60;2.20;;;;;;;23.92;43.43;100119.90;213756;1276;140589;-62
2022/07/09 13:04:47;;;;;;;2.90;2.10;;;;;;;23.77;42.92;100115.14;214536;1276;140114;-62
2022/07/09 13:09:52;;;;;;;3.50;2.30;;;;;;;23.81;43.12;100114.16;213346;1276;141575;-62
2022/07/09 13:15:03;;;;;;;4.70;1.80;;;;;;;23.83;43.02;100105.78;213670;1276;139397;-64
2022/07/09 13:20:08;;;;;;;2.30;2.10;;;;;;;23.84;42.89;100097.80;213773;1276;141128;-65
2022/07/09 13:25:11;;;;;;;3.90;1.90;;;;;;;23.73;42.68;100103.17;213250;1276;141662;-62
2022/07/09 13:30:20;;;;;;;2.80;2.30;;;;;;;23.59;42.55;100094.21;214193;1276;141093;-62
2022/07/09 13:35:24;;;;;;;2.70;1.90;;;;;;;23.43;42.86;100092.92;213604;1276;141133;-62
2022/07/09 13:40:28;;;;;;;1.80;1.70;;;;;;;23.09;42.94;100090.56;215121;1276;139361;-63
2022/07/09 13:45:32;;;;;;;4.10;1.80;;;;;;;22.85;43.05;100087.44;215704;1276;151006;-62
2022/07/09 13:50:36;;;;;;;7.90;2.10;;;;;;;22.69;43.41;100085.37;215787;1274;141470;-63
2022/07/09 13:55:43;;;;;;;3.10;2.40;;;;;;;22.53;43.60;100082.27;215640;1276;140216;-62
2022/07/09 14:00:47;;;;;;;8.90;2.60;;;;;;;22.47;44.05;100073.96;215482;1276;140796;-63
2022/07/09 14:05:52;;;;;;;6.30;3.50;;;;;;;22.56;44.01;100073.58;214780;1276;139283;-62
2022/07/09 14:10:58;;;;;;;2.50;2.10;;;;;;;22.48;44.09;100071.23;214467;1276;139718;-62
2022/07/09 14:16:04;;;;;;;3.30;2.60;;;;;;;22.41;44.23;100064.81;214360;1276;142096;-62
2022/07/09 14:21:09;;;;;;;2.40;1.80;;;;;;;22.31;44.45;100061.18;213029;1276;141807;-61
2022/07/09 14:26:17;;;;;;;7.40;3.30;;;;;;;22.26;44.50;100054.63;214118;1276;141264;-61
2022/07/09 14:31:24;;;;;;;4.40;2.00;;;;;;;22.23;44.73;100048.81;213291;1276;141888;-63
2022/07/09 14:36:32;;;;;;;7.90;2.70;;;;;;;22.19;44.76;100052.09;214581;1276;140039;-62
2022/07/09 14:41:40;;;;;;;5.30;2.90;;;;;;;22.04;44.61;100049.78;213135;1276;140702;-62
2022/07/09 14:46:46;;;;;;;5.40;2.90;;;;;;;21.80;44.41;100041.80;214541;1276;140021;-64
2022/07/09 14:52:00;;;;;;;4.00;1.80;;;;;;;21.69;44.43;100033.82;214652;1276;140797;-63
2022/07/09 14:57:10;;;;;;;5.80;2.20;;;;;;;21.70;44.82;100031.02;213923;1276;143796;-62
2022/07/09 15:02:15;;;;;;;5.50;2.00;;;;;;;21.76;45.10;100026.61;212993;1276;140847;-64
2022/07/09 15:07:25;;;;;;;10.70;5.10;;;;;;;21.89;45.21;100032.83;213476;1276;141345;-62
2022/07/09 15:12:30;;;;;;;6.40;3.80;;;;;;;21.89;44.80;100030.34;212903;1276;140775;-60
2022/07/09 15:17:34;;;;;;;3.60;2.70;;;;;;;21.80;44.76;100024.08;214873;1276;139758;-62
2022/07/09 15:22:46;;;;;;;4.40;2.90;;;;;;;21.74;44.75;100024.20;213080;1276;141371;-63
2022/07/09 15:27:52;;;;;;;4.00;2.00;;;;;;;21.64;44.68;100022.46;215322;1276;141204;-63
2022/07/09 15:32:56;;;;;;;6.00;2.20;;;;;;;21.55;44.93;100020.30;214712;1276;140596;-64
2022/07/09 15:38:01;;;;;;;4.50;1.50;;;;;;;21.48;45.27;100017.91;215117;1276;141389;-62
2022/07/09 15:43:09;;;;;;;1.90;1.80;;;;;;;21.37;45.19;100011.25;215488;1276;141137;-62
2022/07/09 15:48:14;;;;;;;4.30;1.80;;;;;;;21.29;45.53;100003.48;215631;1276;139723;-63
2022/07/09 15:53:20;;;;;;;4.30;2.90;;;;;;;21.24;45.50;100000.97;215626;1276;139766;-62
2022/07/09 15:58:24;;;;;;;8.50;1.80;;;;;;;21.23;45.64;99995.18;215565;1276;140337;-63
2022/07/09 16:03:29;;;;;;;1.70;1.60;;;;;;;21.19;46.00;99992.23;213832;1276;140751;-64
2022/07/09 16:08:34;;;;;;;2.60;1.60;;;;;;;21.29;46.20;99987.16;215103;1276;140906;-65
2022/07/09 16:13:39;;;;;;;1.50;1.30;;;;;;;21.33;46.16;99981.88;213767;1276;140756;-65
2022/07/09 16:18:43;;;;;;;3.20;2.00;;;;;;;21.38;46.37;99972.73;213799;1276;236089;-63
2022/07/09 16:23:49;;;;;;;2.50;1.70;;;;;;;21.59;46.47;99968.96;213796;1277;140351;-64
2022/07/09 16:28:59;;;;;;;3.30;2.40;;;;;;;21.64;46.19;99960.98;213045;1277;140310;-62
2022/07/09 16:34:03;;;;;;;3.60;2.30;;;;;;;21.39;45.97;99959.80;213623;1276;139647;-62
2022/07/09 16:39:08;;;;;;;5.10;3.10;;;;;;;21.09;46.07;99953.70;214361;1276;140244;-64
2022/07/09 16:44:11;;;;;;;5.10;2.20;;;;;;;21.03;46.41;99949.49;213081;1276;140148;-62
2022/07/09 16:49:15;;;;;;;2.20;2.00;;;;;;;20.93;46.33;99946.58;213743;1276;139400;-63
2022/07/09 16:54:19;;;;;;;3.50;2.80;;;;;;;20.59;46.50;99942.29;213476;1276;139498;-63
2022/07/09 16:59:26;;;;;;;3.10;2.50;;;;;;;20.30;47.11;99938.59;214334;1276;139942;-62
2022/07/09 17:04:55;;;;;;;1.80;1.70;;;;;;;20.17;47.71;99932.02;213812;1276;141673;-62
2022/07/09 17:09:59;;;;;;;4.60;3.00;;;;;;;20.30;48.07;99928.56;213329;1276;141196;-64
2022/07/09 17:15:08;;;;;;;6.90;2.20;;;;;;;20.53;48.06;99921.61;214478;1276;141331;-64
2022/07/09 17:20:12;;;;;;;3.70;1.70;;;;;;;20.67;48.25;99921.89;213933;1276;140282;-63
2022/07/09 17:25:17;;;;;;;4.30;1.50;;;;;;;20.73;47.95;99922.44;213701;1276;141118;-63
2022/07/09 17:30:22;;;;;;;1.90;1.60;;;;;;;20.70;47.91;99919.98;214642;1276;140291;-64
2022/07/09 17:35:27;;;;;;;2.20;2.10;;;;;;;20.57;47.77;99917.33;215488;1276;141120;-64
2022/07/09 17:40:31;;;;;;;2.70;1.90;;;;;;;20.43;47.85;99917.23;215584;1276;140784;-64
2022/07/09 17:45:35;;;;;;;3.10;2.20;;;;;;;20.33;48.21;99911.20;215726;1276;140115;-63
2022/07/09 17:50:39;;;;;;;4.00;2.00;;;;;;;20.18;48.50;99911.96;214988;1276;204263;-63
2022/07/09 17:55:43;;;;;;;3.80;2.20;;;;;;;19.95;48.57;99911.86;215467;1279;140605;-63
2022/07/09 18:00:47;;;;;;;3.00;1.80;;;;;;;19.74;49.10;99907.88;215146;1276;140921;-65
2022/07/09 18:05:52;;;;;;;2.80;2.00;;;;;;;19.56;49.80;99907.69;214945;1276;139487;-63
2022/07/09 18:10:58;;;;;;;2.00;1.70;;;;;;;19.39;50.64;99900.94;214295;1277;139237;-63
2022/07/09 18:16:02;;;;;;;4.70;2.10;;;;;;;19.17;51.20;99895.36;213685;1276;139680;-64
2022/07/09 18:21:07;;;;;;;4.30;2.10;;;;;;;18.93;52.14;99898.48;214193;1276;140229;-65
2022/07/09 18:26:12;;;;;;;3.90;2.40;;;;;;;18.66;52.89;99899.33;214168;1276;140278;-66
2022/07/09 18:31:18;;;;;;;1.90;1.60;;;;;;;18.33;53.56;99891.75;214484;1276;140277;-64
2022/07/09 18:36:23;;;;;;;1.90;1.80;;;;;;;18.07;55.04;99890.44;214079;1276;141050;-66
2022/07/09 18:41:29;;;;;;;2.10;1.90;;;;;;;17.90;55.81;99889.79;213700;1276;139393;-63
2022/07/09 18:46:33;;;;;;;32.30;4.20;;;;;;;17.81;56.89;99906.88;212976;1276;162715;-64
2022/07/09 18:51:38;;;;;;;1.70;1.60;;;;;;;17.69;56.50;99925.48;213833;1276;140968;-63
2022/07/09 18:56:47;;;;;;;3.00;1.80;;;;;;;17.56;57.02;99930.15;214066;1276;139194;-63
2022/07/09 19:01:51;;;;;;;3.30;1.10;;;;;;;17.23;58.14;99943.35;213418;1277;140260;-64
2022/07/09 19:06:57;;;;;;;3.00;1.70;;;;;;;16.88;59.23;99958.44;215162;1276;141163;-64
2022/07/09 19:12:02;;;;;;;1.40;1.10;;;;;;;16.67;60.26;99974.06;214308;1276;142099;-63
2022/07/09 19:17:06;;;;;;;1.40;1.30;;;;;;;16.49;60.89;99978.11;214596;1276;140141;-64
2022/07/09 19:22:12;;;;;;;1.80;1.10;;;;;;;16.29;61.55;99975.72;215432;1276;139546;-62
2022/07/09 19:27:16;;;;;;;2.50;1.60;;;;;;;16.10;62.25;99962.01;215038;1276;139477;-63
2022/07/09 19:37:43;;;;;;;3.00;1.00;;;;;;;16.08;63.57;99937.91;214416;1276;141435;-63
2022/07/09 19:42:48;;;;;;;6.50;1.30;;;;;;;16.06;63.94;99937.63;215251;1276;140321;-64
2022/07/09 19:47:51;;;;;;;1.60;1.50;;;;;;;15.97;64.20;99929.38;215932;1276;140789;-64
2022/07/09 19:52:55;;;;;;;2.00;1.10;;;;;;;15.91;64.70;99929.36;213916;1276;226025;-64
2022/07/09 19:57:58;;;;;;;1.20;1.20;;;;;;;15.91;65.01;99931.19;214617;1276;139741;-63
2022/07/09 20:03:08;;;;;;;1.40;0.80;;;;;;;15.91;65.34;99924.04;214758;1276;140166;-64
2022/07/09 20:08:15;;;;;;;2.40;1.00;;;;;;;15.66;65.32;99916.54;213508;1276;141686;-63
2022/07/09 20:13:22;;;;;;;5.70;1.50;;;;;;;15.34;65.81;99915.16;213566;1276;141427;-62
2022/07/09 20:18:27;;;;;;;1.80;1.60;;;;;;;15.07;66.62;99911.73;214560;1276;139594;-64
2022/07/09 20:23:34;;;;;;;1.70;1.60;;;;;;;14.96;67.31;99918.92;214278;1276;140466;-64
2022/07/09 20:28:37;;;;;;;2.90;1.50;;;;;;;15.05;67.84;99918.70;214127;1276;140641;-64
2022/07/09 20:33:42;;;;;;;1.20;1.20;;;;;;;15.09;67.80;99916.79;213650;1276;141599;-64
2022/07/09 20:38:46;;;;;;;1.90;1.20;;;;;;;14.93;68.10;99911.66;213060;1276;141632;-65
2022/07/09 20:43:49;;;;;;;1.50;1.50;;;;;;;14.93;68.35;99906.45;213633;1276;139228;-64
2022/07/09 20:48:53;;;;;;;2.50;1.70;;;;;;;14.76;68.26;99909.83;213272;1276;139327;-64
2022/07/09 20:53:57;;;;;;;5.00;1.70;;;;;;;14.73;68.47;99909.09;212890;1276;139835;-64
2022/07/09 20:59:02;;;;;;;4.40;1.30;;;;;;;14.66;68.57;99913.83;213977;1276;140201;-64
2022/07/09 21:04:06;;;;;;;18.80;2.10;;;;;;;14.58;68.56;99913.93;212790;1277;139535;-62
2022/07/09 21:09:10;;;;;;;1.40;1.30;;;;;;;14.45;68.61;99919.13;214036;1276;142211;-64
2022/07/09 21:14:13;;;;;;;2.60;2.00;;;;;;;14.39;68.86;99918.73;214507;1276;140259;-65
2022/07/09 21:19:17;;;;;;;2.30;2.00;;;;;;;14.37;69.12;99917.73;214123;1276;142126;-64
2022/07/09 21:24:20;;;;;;;2.10;1.50;;;;;;;14.38;69.29;99915.27;212876;1276;140697;-64
2022/07/09 21:29:25;;;;;;;1.70;1.20;;;;;;;14.36;69.43;99915.84;214175;1276;139572;-65
2022/07/09 21:34:29;;;;;;;2.00;1.90;;;;;;;14.13;69.01;99912.42;215723;1276;140096;-65
2022/07/09 21:39:33;;;;;;;2.90;1.30;;;;;;;13.98;69.17;99911.69;214531;1277;140339;-63
2022/07/09 21:44:37;;;;;;;4.60;2.60;;;;;;;13.84;69.16;99911.70;215601;1277;150935;-64
2022/07/09 21:49:41;;;;;;;6.40;1.70;;;;;;;13.70;69.24;99901.59;215895;1276;139877;-64
2022/07/09 21:54:47;;;;;;;2.00;1.70;;;;;;;13.53;69.22;99897.70;215773;1276;140466;-64
2022/07/09 21:59:59;;;;;;;1.50;1.40;;;;;;;13.41;69.73;99895.27;214530;1276;139459;-64
2022/07/09 22:05:06;;;;;;;1.40;1.30;;;;;;;13.48;70.07;99893.23;212944;1277;139730;-64
2022/07/09 22:10:15;;;;;;;1.70;1.50;;;;;;;13.45;70.15;99891.92;213848;1276;140760;-66
2022/07/09 22:15:20;;;;;;;2.90;1.50;;;;;;;13.32;70.21;99886.23;212937;1277;140732;-64
2022/07/09 22:20:27;;;;;;;1.60;1.50;;;;;;;13.16;70.34;99886.30;213219;1277;140025;-64
2022/07/09 22:25:32;;;;;;;3.20;1.90;;;;;;;13.12;70.81;99877.19;214145;1276;140556;-65
2022/07/09 22:30:43;;;;;;;2.20;2.00;;;;;;;13.02;70.80;99872.88;213846;1277;143633;-63
2022/07/09 22:35:51;;;;;;;2.60;2.00;;;;;;;12.91;71.24;99861.68;213985;1277;141581;-64
2022/07/09 22:40:59;;;;;;;2.90;2.70;;;;;;;12.86;71.65;99850.87;213244;1277;139880;-64
2022/07/09 22:46:04;;;;;;;3.00;2.30;;;;;;;12.80;71.70;99855.23;213598;1277;141516;-64
2022/07/09 22:51:12;;;;;;;4.90;3.00;;;;;;;12.84;71.73;99859.39;213143;1277;140108;-65
2022/07/09 22:56:17;;;;;;;;;;;;;;;12.91;72.14;99860.56;214019;1277;142225;-64
2022/07/09 23:01:27;;;;;;;2.60;2.40;;;;;;;12.89;72.05;99863.09;214770;1277;126341;-65
2022/07/09 23:06:31;;;;;;;17.00;3.70;;;;;;;12.85;72.30;99855.92;213088;1277;1539412;-64
2022/07/09 23:11:39;;;;;;;3.20;2.60;;;;;;;12.87;72.78;99852.90;214562;1277;140655;-64
2022/07/09 23:16:44;;;;;;;3.10;2.90;;;;;;;12.94;72.63;99852.38;214267;1277;141329;-62
2022/07/09 23:21:48;;;;;;;3.10;2.70;;;;;;;13.04;73.12;99852.23;215872;1277;140856;-64